createdAt,value
2023-05-08T00:01:23.163Z,8.40
2023-05-08T00:04:09.734Z,8.23
2023-05-08T00:06:55.993Z,9.23
2023-05-08T00:09:42.289Z,8.30
2023-05-08T00:12:28.141Z,7.68
2023-05-08T00:15:14.095Z,9.25
2023-05-08T00:18:00.301Z,7.72
2023-05-08T00:20:46.689Z,8.25
2023-05-08T00:23:33.141Z,8.80
2023-05-08T00:26:19.329Z,8.02
2023-05-08T00:31:53.005Z,9.77
2023-05-08T00:37:25.889Z,8.38
2023-05-08T00:40:15.188Z,7.60
2023-05-08T00:43:02.215Z,8.30
2023-05-08T00:45:48.171Z,8.98
2023-05-08T00:48:36.043Z,9.75
2023-05-08T00:51:22.778Z,7.00
2023-05-08T00:54:08.969Z,8.23
2023-05-08T00:56:55.848Z,8.93
2023-05-08T00:59:43.376Z,8.73
2023-05-08T01:02:31.724Z,9.40
2023-05-08T01:05:17.914Z,8.15
2023-05-08T01:11:04.553Z,8.13
2023-05-08T01:14:09.113Z,8.32
2023-05-08T01:17:22.859Z,8.07
2023-05-08T01:20:46.908Z,9.20
2023-05-08T01:24:11.325Z,8.52
2023-05-08T01:27:31.555Z,10.05
2023-05-08T01:30:29.952Z,8.60
2023-05-08T01:36:20.999Z,8.13
2023-05-08T01:39:12.961Z,9.38
2023-05-08T01:42:41.066Z,10.73
2023-05-08T01:45:32.238Z,8.90
2023-05-08T01:48:24.430Z,11.32
2023-05-08T01:51:18.167Z,9.43
2023-05-08T01:54:10.132Z,10.43
2023-05-08T01:56:58.409Z,9.50
2023-05-08T01:59:45.944Z,8.68
2023-05-08T02:02:34.598Z,8.48
2023-05-08T02:05:22.751Z,8.88
2023-05-08T02:08:11.312Z,8.70
2023-05-08T02:10:59.332Z,8.25
2023-05-08T02:13:48.905Z,9.02
2023-05-08T02:16:37.767Z,8.90
2023-05-08T02:19:27.105Z,9.70
2023-05-08T02:22:15.243Z,9.68
2023-05-08T02:25:01.757Z,12.80
2023-05-08T02:27:49.611Z,9.05
2023-05-08T02:30:37.341Z,7.75
2023-05-08T02:33:24.711Z,8.05
2023-05-08T02:36:15.932Z,7.47
2023-05-08T02:39:03.795Z,8.88
2023-05-08T02:41:51.010Z,8.23
2023-05-08T02:44:37.362Z,8.00
2023-05-08T02:47:29.260Z,7.93
2023-05-08T02:50:37.484Z,8.60
2023-05-08T02:53:32.890Z,8.90
2023-05-08T02:56:27.953Z,6.13
2023-05-08T02:59:18.377Z,8.00
2023-05-08T03:02:14.186Z,8.55
2023-05-08T03:05:07.989Z,6.75
2023-05-08T03:07:57.486Z,6.80
2023-05-08T03:10:50.035Z,7.30
2023-05-08T03:13:40.986Z,6.88
2023-05-08T03:16:32.088Z,6.32
2023-05-08T03:19:27.355Z,10.55
2023-05-08T03:22:16.472Z,7.20
2023-05-08T03:25:06.442Z,10.02
2023-05-08T03:27:56.400Z,9.00
2023-05-08T03:30:43.744Z,10.48
2023-05-08T03:33:34.129Z,8.15
2023-05-08T03:36:21.413Z,7.20
2023-05-08T03:39:08.455Z,6.45
2023-05-08T03:41:56.813Z,8.02
2023-05-08T03:44:43.999Z,7.70
2023-05-08T03:47:30.223Z,7.07
2023-05-08T03:50:17.168Z,7.20
2023-05-08T03:53:03.931Z,7.03
2023-05-08T03:55:50.093Z,8.15
2023-05-08T03:58:39.234Z,6.82
2023-05-08T04:01:42.690Z,7.75
2023-05-08T04:04:42.445Z,22.85
2023-05-08T04:07:44.118Z,8.50
2023-05-08T04:10:42.327Z,10.65
2023-05-08T04:13:32.323Z,7.68
2023-05-08T04:16:27.166Z,6.95
2023-05-08T04:19:20.739Z,8.10
2023-05-08T04:22:09.412Z,8.63
2023-05-08T04:24:59.514Z,7.43
2023-05-08T04:27:46.469Z,8.73
2023-05-08T04:30:33.279Z,9.63
2023-05-08T04:33:19.616Z,7.30
2023-05-08T04:36:11.052Z,8.75
2023-05-08T04:38:59.005Z,7.93
2023-05-08T04:41:48.017Z,8.77
2023-05-08T04:44:34.394Z,7.70
2023-05-08T04:47:21.321Z,8.77
2023-05-08T04:50:08.334Z,7.82
2023-05-08T04:52:55.795Z,10.65
2023-05-08T04:55:42.484Z,7.25
2023-05-08T04:58:29.069Z,9.05
2023-05-08T05:01:15.939Z,9.98
2023-05-08T05:04:02.249Z,9.00
2023-05-08T05:06:48.918Z,7.00
2023-05-08T05:09:37.064Z,8.15
2023-05-08T05:12:24.113Z,6.88
2023-05-08T05:15:10.815Z,7.57
2023-05-08T05:17:58.598Z,9.70
2023-05-08T05:20:44.743Z,8.30
2023-05-08T05:23:32.088Z,8.40
2023-05-08T05:26:19.928Z,7.45
2023-05-08T05:29:06.272Z,7.38
2023-05-08T05:31:52.960Z,6.18
2023-05-08T05:34:40.036Z,8.77
2023-05-08T05:37:26.943Z,7.20
2023-05-08T05:40:14.441Z,6.93
2023-05-08T05:43:01.872Z,7.15
2023-05-08T05:45:48.252Z,7.40
2023-05-08T05:48:34.574Z,7.20
2023-05-08T05:51:21.048Z,7.95
2023-05-08T05:54:08.124Z,8.10
2023-05-08T05:56:54.978Z,7.20
2023-05-08T05:59:41.296Z,9.15
2023-05-08T06:02:28.008Z,8.13
2023-05-08T06:05:15.226Z,7.70
2023-05-08T06:08:01.525Z,8.93
2023-05-08T06:10:48.630Z,9.13
2023-05-08T06:13:34.680Z,7.22
2023-05-08T06:16:23.127Z,8.30
2023-05-08T06:19:09.437Z,9.77
2023-05-08T06:21:55.679Z,8.73
2023-05-08T06:24:41.714Z,7.85
2023-05-08T06:27:27.660Z,9.05
2023-05-08T06:30:13.792Z,9.23
2023-05-08T06:33:00.215Z,9.40
2023-05-08T06:35:47.897Z,8.95
2023-05-08T06:38:33.867Z,8.13
2023-05-08T06:41:19.705Z,8.18
2023-05-08T06:44:05.707Z,8.45
2023-05-08T06:46:52.014Z,7.97
2023-05-08T06:49:38.268Z,7.78
2023-05-08T06:52:25.774Z,7.45
2023-05-08T06:55:12.214Z,8.57
2023-05-08T06:57:58.574Z,8.52
2023-05-08T07:00:44.727Z,8.20
2023-05-08T07:03:31.247Z,10.70
2023-05-08T07:06:17.228Z,7.93
2023-05-08T07:09:03.620Z,8.50
2023-05-08T07:11:50.284Z,8.05
2023-05-08T07:14:36.846Z,9.60
2023-05-08T07:17:23.041Z,10.77
2023-05-08T07:20:09.492Z,8.57
2023-05-08T07:22:55.251Z,9.35
2023-05-08T07:25:41.209Z,8.93
2023-05-08T07:28:27.318Z,9.07
2023-05-08T07:31:13.257Z,8.88
2023-05-08T07:33:59.851Z,8.27
2023-05-08T07:36:46.262Z,7.85
2023-05-08T07:39:32.293Z,9.65
2023-05-08T07:42:18.364Z,8.85
2023-05-08T07:45:04.798Z,8.43
2023-05-08T07:47:56.119Z,9.02
2023-05-08T07:50:42.618Z,8.50
2023-05-08T07:53:28.689Z,8.25
2023-05-08T07:56:14.574Z,8.00
2023-05-08T07:59:00.699Z,8.50
2023-05-08T08:01:47.546Z,9.90
2023-05-08T08:04:34.018Z,9.90
2023-05-08T08:10:07.382Z,9.98
2023-05-08T08:12:53.654Z,8.02
2023-05-08T08:15:39.800Z,8.73
2023-05-08T08:18:25.986Z,9.85
2023-05-08T08:21:12.168Z,8.25
2023-05-08T08:26:45.433Z,10.30
2023-05-08T08:29:32.309Z,10.35
2023-05-08T08:32:18.591Z,13.50
2023-05-08T08:35:05.417Z,9.27
2023-05-08T08:37:51.573Z,11.18
2023-05-08T08:40:41.761Z,11.13
2023-05-08T08:43:28.602Z,9.52
2023-05-08T08:46:15.429Z,9.77
2023-05-08T08:49:04.907Z,10.70
2023-05-08T08:51:54.627Z,9.55
2023-05-08T08:54:43.597Z,13.07
2023-05-08T08:57:34.309Z,8.57
2023-05-08T09:00:22.291Z,9.10
2023-05-08T09:03:09.052Z,10.50
2023-05-08T09:05:56.189Z,9.15
2023-05-08T09:08:43.257Z,9.50
2023-05-08T09:11:29.261Z,11.15
2023-05-08T09:14:15.261Z,9.20
2023-05-08T09:17:01.653Z,8.38
2023-05-08T09:19:49.653Z,9.80
2023-05-08T09:22:39.150Z,11.70
2023-05-08T09:25:25.356Z,9.48
2023-05-08T09:28:25.897Z,9.68
2023-05-08T09:31:12.198Z,10.10
2023-05-08T09:36:44.887Z,9.50
2023-05-08T09:39:31.121Z,9.60
2023-05-08T09:45:03.475Z,11.30
2023-05-08T09:47:50.821Z,12.25
2023-05-08T09:50:37.715Z,11.02
2023-05-08T09:53:31.767Z,10.75
2023-05-08T09:56:29.768Z,10.95
2023-05-08T09:59:30.828Z,11.55
2023-05-08T10:02:20.332Z,13.63
2023-05-08T10:05:24.605Z,13.75
2023-05-08T10:08:25.237Z,11.23
2023-05-08T10:11:16.592Z,13.38
2023-05-08T10:14:03.181Z,12.52
2023-05-08T10:16:54.296Z,12.55
2023-05-08T10:19:46.078Z,10.15
2023-05-08T10:22:36.168Z,11.23
2023-05-08T10:25:23.378Z,11.18
2023-05-08T10:28:36.937Z,11.23
2023-05-08T10:31:26.220Z,12.77
2023-05-08T10:34:20.907Z,12.70
2023-05-08T10:37:11.579Z,12.32
2023-05-08T10:39:58.836Z,12.07
2023-05-08T10:42:45.637Z,12.30
2023-05-08T10:48:31.908Z,12.15
2023-05-08T10:52:01.261Z,12.27
2023-05-08T10:55:04.377Z,12.50
2023-05-08T10:58:29.663Z,12.52
2023-05-08T11:01:16.958Z,10.82
2023-05-08T11:04:23.442Z,13.40
2023-05-08T11:07:09.805Z,13.75
2023-05-08T11:10:08.020Z,12.88
2023-05-08T11:12:54.963Z,13.10
2023-05-08T11:15:42.168Z,10.32
2023-05-08T11:18:41.822Z,12.50
2023-05-08T11:21:34.828Z,15.18
2023-05-08T11:24:35.941Z,12.95
2023-05-08T11:27:48.295Z,14.77
2023-05-08T11:30:36.968Z,11.50
2023-05-08T11:33:29.427Z,12.00
2023-05-08T11:36:25.531Z,11.20
2023-05-08T11:39:12.833Z,11.35
2023-05-08T11:42:24.884Z,10.88
2023-05-08T11:45:14.006Z,13.55
2023-05-08T11:48:01.960Z,12.77
2023-05-08T11:50:49.758Z,14.57
2023-05-08T11:53:37.619Z,12.77
2023-05-08T11:56:24.639Z,12.63
2023-05-08T11:59:10.920Z,11.13
2023-05-08T12:04:55.209Z,13.40
2023-05-08T12:07:48.748Z,10.32
2023-05-08T12:10:53.750Z,13.40
2023-05-08T12:13:40.483Z,12.30
2023-05-08T12:19:14.054Z,10.48
2023-05-08T12:22:00.694Z,10.32
2023-05-08T12:24:46.926Z,11.88
2023-05-08T12:27:33.047Z,10.95
2023-05-08T12:30:19.938Z,11.65
2023-05-08T12:33:07.202Z,11.07
2023-05-08T12:35:53.642Z,11.90
2023-05-08T12:38:40.257Z,11.15
2023-05-08T12:41:26.991Z,10.90
2023-05-08T12:44:31.394Z,11.18
2023-05-08T12:47:20.680Z,11.85
2023-05-08T12:50:09.994Z,12.02
2023-05-08T12:53:03.501Z,12.65
2023-05-08T12:55:55.874Z,12.10
2023-05-08T13:01:28.232Z,11.73
2023-05-08T13:04:14.815Z,12.95
2023-05-08T13:07:01.273Z,11.77
2023-05-08T13:10:04.941Z,11.27
2023-05-08T13:12:52.324Z,11.73
2023-05-08T13:15:38.580Z,13.35
2023-05-08T13:18:28.081Z,10.35
2023-05-08T13:21:14.022Z,10.80
2023-05-08T13:24:01.506Z,11.05
2023-05-08T13:26:47.664Z,10.27
2023-05-08T13:29:33.784Z,10.02
2023-05-08T13:32:19.969Z,10.32
2023-05-08T13:35:06.554Z,9.38
2023-05-08T13:37:52.689Z,9.18
2023-05-08T13:40:39.004Z,9.13
2023-05-08T13:43:25.474Z,9.85
2023-05-08T13:46:11.523Z,13.73
2023-05-08T13:48:58.026Z,11.45
2023-05-08T13:51:47.084Z,10.88
2023-05-08T13:54:35.822Z,11.30
2023-05-08T13:57:22.663Z,11.48
2023-05-08T14:00:10.095Z,11.82
2023-05-08T14:02:56.526Z,11.95
2023-05-08T14:05:42.748Z,12.07
2023-05-08T14:11:15.858Z,13.13
2023-05-08T14:14:01.821Z,13.65
2023-05-08T14:16:48.907Z,12.65
2023-05-08T14:19:35.059Z,12.70
2023-05-08T14:22:21.157Z,12.15
2023-05-08T14:25:07.991Z,11.98
2023-05-08T14:27:53.907Z,11.90
2023-05-08T14:30:39.990Z,11.60
2023-05-08T14:33:26.155Z,10.32
2023-05-08T14:36:12.133Z,11.98
2023-05-08T14:38:58.264Z,11.07
2023-05-08T14:41:54.916Z,13.25
2023-05-08T14:44:46.163Z,12.63
2023-05-08T14:50:19.437Z,11.70
2023-05-08T14:53:05.964Z,12.68
2023-05-08T14:55:52.221Z,11.55
2023-05-08T15:01:24.645Z,11.55
2023-05-08T15:06:57.329Z,11.90
2023-05-08T15:09:43.636Z,13.63
2023-05-08T15:15:16.572Z,12.45
2023-05-08T15:18:02.603Z,13.75
2023-05-08T15:20:48.655Z,13.02
2023-05-08T15:23:34.489Z,13.82
2023-05-08T15:26:21.872Z,12.57
2023-05-08T15:29:08.373Z,15.93
2023-05-08T15:31:54.531Z,14.07
2023-05-08T15:34:40.916Z,11.43
2023-05-08T15:37:27.758Z,15.00
2023-05-08T15:40:13.784Z,12.15
2023-05-08T15:43:00.245Z,14.10
2023-05-08T15:45:46.878Z,14.45
2023-05-08T15:48:33.580Z,13.43
2023-05-08T15:54:05.725Z,12.30
2023-05-08T15:56:51.717Z,14.43
2023-05-08T15:59:37.813Z,11.75
2023-05-08T16:02:23.936Z,12.23
2023-05-08T16:05:10.405Z,13.20
2023-05-08T16:07:56.686Z,13.77
2023-05-08T16:10:42.892Z,13.00
2023-05-08T16:13:29.255Z,11.35
2023-05-08T16:16:15.550Z,12.55
2023-05-08T16:19:02.004Z,13.73
2023-05-08T16:21:48.006Z,14.82
2023-05-08T16:24:34.156Z,12.98
2023-05-08T16:27:20.482Z,12.68
2023-05-08T16:32:53.215Z,12.75
2023-05-08T16:35:40.281Z,13.90
2023-05-08T16:38:26.761Z,13.93
2023-05-08T16:41:13.443Z,12.55
2023-05-08T16:43:59.789Z,14.25
2023-05-08T16:46:46.061Z,12.93
2023-05-08T16:49:31.940Z,13.18
2023-05-08T16:52:18.146Z,12.43
2023-05-08T16:57:53.533Z,12.60
2023-05-08T17:00:39.910Z,13.60
2023-05-08T17:03:26.081Z,15.52
2023-05-08T17:06:12.276Z,12.57
2023-05-08T17:11:44.997Z,13.13
2023-05-08T17:14:31.178Z,11.85
2023-05-08T17:20:07.152Z,14.63
2023-05-08T17:25:42.042Z,12.60
2023-05-08T17:28:28.033Z,15.25
2023-05-08T17:31:15.572Z,14.13
2023-05-08T17:34:01.619Z,15.38
2023-05-08T17:36:48.339Z,15.43
2023-05-08T17:39:34.390Z,13.65
2023-05-08T17:45:07.683Z,12.75
2023-05-08T17:47:53.864Z,13.63
2023-05-08T17:50:42.188Z,14.82
2023-05-08T17:53:31.972Z,12.13
2023-05-08T17:56:20.625Z,13.23
2023-05-08T17:59:06.901Z,15.23
2023-05-08T18:01:54.524Z,12.85
2023-05-08T18:04:41.217Z,14.35
2023-05-08T18:07:27.931Z,12.48
2023-05-08T18:10:14.253Z,13.75
2023-05-08T18:15:46.702Z,14.68
2023-05-08T18:18:32.733Z,14.30
2023-05-08T18:21:18.882Z,12.82
2023-05-08T18:24:05.287Z,13.45
2023-05-08T18:29:39.186Z,12.65
2023-05-08T18:32:25.129Z,12.90
2023-05-08T18:35:11.174Z,13.48
2023-05-08T18:37:57.462Z,12.23
2023-05-08T18:40:44.233Z,12.65
2023-05-08T18:43:30.920Z,12.60
2023-05-08T18:46:17.886Z,12.63
2023-05-08T18:49:04.386Z,14.13
2023-05-08T18:51:50.674Z,12.27
2023-05-08T18:57:22.856Z,13.10
2023-05-08T19:00:09.385Z,12.57
2023-05-08T19:02:55.614Z,15.48
2023-05-08T19:08:27.957Z,12.52
2023-05-08T19:11:14.136Z,14.88
2023-05-08T19:14:00.262Z,13.98
2023-05-08T19:16:46.278Z,14.40
2023-05-08T19:19:32.263Z,13.27
2023-05-08T19:22:18.256Z,12.00
2023-05-08T19:25:04.628Z,13.80
2023-05-08T19:27:50.867Z,13.57
2023-05-08T19:30:36.803Z,11.60
2023-05-08T19:33:22.991Z,11.57
2023-05-08T19:36:09.064Z,12.57
2023-05-08T19:38:55.193Z,12.23
2023-05-08T19:41:41.251Z,11.32
2023-05-08T19:44:28.085Z,12.27
2023-05-08T19:47:14.338Z,13.38
2023-05-08T19:50:00.223Z,14.77
2023-05-08T19:52:47.900Z,12.55
2023-05-08T19:55:34.293Z,11.75
2023-05-08T19:58:20.230Z,12.25
2023-05-08T20:01:06.562Z,11.80
2023-05-08T20:03:53.460Z,12.70
2023-05-08T20:09:25.900Z,13.77
2023-05-08T20:12:11.897Z,14.90
2023-05-08T20:14:57.872Z,13.18
2023-05-08T20:17:44.210Z,13.98
2023-05-08T20:20:30.685Z,12.95
2023-05-08T20:23:16.760Z,14.38
2023-05-08T20:26:05.237Z,16.65
2023-05-08T20:28:51.268Z,14.55
2023-05-08T20:31:37.535Z,13.07
2023-05-08T20:34:23.673Z,14.43
2023-05-08T20:37:09.642Z,15.55
2023-05-08T20:39:56.446Z,14.57
2023-05-08T20:42:42.874Z,13.05
2023-05-08T20:45:29.402Z,15.35
2023-05-08T20:51:05.140Z,16.70
2023-05-08T20:53:51.573Z,13.60
2023-05-08T20:59:24.052Z,14.15
2023-05-08T21:02:10.358Z,14.82
2023-05-08T21:04:56.426Z,17.17
2023-05-08T21:07:42.768Z,14.65
2023-05-08T21:10:31.282Z,14.05
2023-05-08T21:13:17.617Z,17.52
2023-05-08T21:16:05.654Z,14.25
2023-05-08T21:18:51.636Z,13.68
2023-05-08T21:21:37.577Z,13.88
2023-05-08T21:24:23.806Z,17.00
2023-05-08T21:27:12.813Z,15.82
2023-05-08T21:29:58.867Z,14.57
2023-05-08T21:32:45.623Z,14.82
2023-05-08T21:35:32.136Z,13.70
2023-05-08T21:38:17.974Z,15.77
2023-05-08T21:41:11.136Z,14.77
2023-05-08T21:43:57.546Z,17.23
2023-05-08T21:46:44.044Z,14.60
2023-05-08T21:49:30.472Z,15.23
2023-05-08T21:52:22.016Z,14.32
2023-05-08T21:55:09.185Z,14.57
2023-05-08T21:57:55.342Z,12.18
2023-05-08T22:00:41.383Z,13.48
2023-05-08T22:03:27.474Z,13.57
2023-05-08T22:06:13.659Z,14.98
2023-05-08T22:08:59.700Z,14.05
2023-05-08T22:11:45.801Z,15.60
2023-05-08T22:14:31.781Z,14.95
2023-05-08T22:17:18.129Z,17.73
2023-05-08T22:20:04.686Z,12.65
2023-05-08T22:22:51.177Z,15.38
2023-05-08T22:28:23.576Z,13.77
2023-05-08T22:31:09.601Z,13.65
2023-05-08T22:33:58.107Z,15.70
2023-05-08T22:36:44.417Z,14.48
2023-05-08T22:39:30.344Z,12.75
2023-05-08T22:42:17.417Z,13.10
2023-05-08T22:45:03.861Z,13.65
2023-05-08T22:47:50.798Z,14.82
2023-05-08T22:50:37.362Z,13.40
2023-05-08T22:53:23.472Z,12.23
2023-05-08T22:56:09.540Z,15.05
2023-05-08T22:58:55.843Z,12.85
2023-05-08T23:01:41.974Z,13.27
2023-05-08T23:04:31.204Z,13.27
2023-05-08T23:07:17.783Z,12.73
2023-05-08T23:10:03.916Z,10.77
2023-05-08T23:12:49.928Z,12.45
2023-05-08T23:15:36.911Z,14.80
2023-05-08T23:18:23.055Z,13.50
2023-05-08T23:21:09.059Z,12.82
2023-05-08T23:23:55.150Z,14.02
2023-05-08T23:26:42.210Z,13.45
2023-05-08T23:29:28.734Z,12.02
2023-05-08T23:32:15.330Z,15.95
2023-05-08T23:35:01.523Z,12.13
2023-05-08T23:37:47.498Z,11.75
2023-05-08T23:43:22.915Z,13.75
2023-05-08T23:46:10.074Z,11.38
2023-05-08T23:48:56.145Z,12.80
2023-05-08T23:51:42.145Z,13.55
2023-05-08T23:54:28.293Z,12.90
2023-05-08T23:57:14.770Z,14.07
